This is the latest recevied weather packets stored in our database for station/object EA1AWV-13. If no packets are shown the sender has not sent any weather packets the latest 10 day(s).
| Time | Temp. | Humidity | Pressure | Rain* | Wind** | Luminosity | Snow |
|---|---|---|---|---|---|---|---|
| 1787525082 | 25° C | 93% | 1005.8 hPa | - | - | - | - |
| 1787524482 | 25.56° C | 92% | 1005.8 hPa | - | - | - | - |
| 1787523882 | 25.56° C | 92% | 1005.7 hPa | - | - | - | - |
| 1787523282 | 25° C | 94% | 1006 hPa | - | - | - | - |
| 1787522682 | 25° C | 94% | 1006.1 hPa | - | - | - | - |
| 1787522082 | 25° C | 88% | 1006.1 hPa | - | - | - | - |
| 1787521482 | 26.67° C | 85% | 1005.7 hPa | - | - | - | - |
| 1787520882 | 27.22° C | 82% | 1005.4 hPa | - | - | - | - |
| 1787520282 | 27.22° C | 82% | 1005.5 hPa | - | - | - | - |
| 1787519682 | 26.67° C | 81% | 1005.7 hPa | - | - | - | - |
| 1787519082 | 27.22° C | 77% | 1005.6 hPa | - | - | - | - |
| 1787518482 | 26.11° C | 78% | 1005.8 hPa | - | - | - | - |
| 1787517882 | 27.78° C | 71% | 1005.2 hPa | - | - | - | - |
| 1787517282 | 28.33° C | 69% | 1005.1 hPa | - | - | - | - |
| 1787516682 | 28.89° C | 65% | 1004.9 hPa | - | - | - | - |
| 1787516082 | 28.89° C | 64% | 1004.8 hPa | - | - | - | - |
| 1787515482 | 29.44° C | 61% | 1004.7 hPa | - | - | - | - |
| 1787514882 | 29.44° C | 56% | 1004.5 hPa | - | - | - | - |
| 1787514282 | 30° C | 52% | 1004.2 hPa | - | - | - | - |
| 1787513682 | 30° C | 51% | 1004.2 hPa | - | - | - | - |
| 1787513082 | 30.56° C | 50% | 1004.1 hPa | - | - | - | - |
| 1787512482 | 30.56° C | 49% | 1004.2 hPa | - | - | - | - |
| 1787511882 | 30.56° C | 48% | 1004.3 hPa | - | - | - | - |
| 1787511282 | 31.11° C | 47% | 1004.1 hPa | - | - | - | - |
| 1787510682 | 31.11° C | 47% | 1004 hPa | - | - | - | - |
* Rain since midnight (hover to see other rain measurements)
** Current wind speed in m/s (hover to see current wind gust speed)